createdAt,value
2023-03-08T00:04:26.692Z,88.23
2023-03-08T00:10:49.579Z,88.73
2023-03-08T00:17:09.623Z,88.82
2023-03-08T00:23:32.619Z,88.72
2023-03-08T00:29:52.581Z,88.52
2023-03-08T00:36:15.623Z,88.43
2023-03-08T00:42:35.589Z,88.64
2023-03-08T00:48:58.654Z,89
2023-03-08T00:55:18.624Z,89.12
2023-03-08T01:01:41.642Z,89.53
2023-03-08T01:08:01.621Z,89.51
2023-03-08T01:14:24.655Z,89.09
2023-03-08T01:20:44.564Z,89.1
2023-03-08T01:27:07.593Z,89.23
2023-03-08T01:33:27.670Z,89.36
2023-03-08T01:39:50.682Z,89.42
2023-03-08T01:46:10.584Z,89.71
2023-03-08T01:52:33.719Z,89.4
2023-03-08T01:58:53.615Z,89.13
2023-03-08T02:05:16.599Z,89.23
2023-03-08T02:11:36.576Z,89.5
2023-03-08T02:17:59.681Z,89.09
2023-03-08T02:24:19.622Z,89.19
2023-03-08T02:30:42.678Z,89.14
2023-03-08T02:37:02.624Z,89
2023-03-08T02:43:25.643Z,88.68
2023-03-08T02:49:45.753Z,88.93
2023-03-08T02:56:08.602Z,88.89
2023-03-08T03:02:28.611Z,89.12
2023-03-08T03:08:51.640Z,89.35
2023-03-08T03:15:11.602Z,89.44
2023-03-08T03:21:34.669Z,89.19
2023-03-08T03:27:54.576Z,89.36
2023-03-08T03:34:17.670Z,89.59
2023-03-08T03:40:37.562Z,89.62
2023-03-08T03:47:00.641Z,89.71
2023-03-08T03:53:20.604Z,90.12
2023-03-08T03:59:43.611Z,90.03
2023-03-08T04:06:03.667Z,90.21
2023-03-08T04:22:32.510Z,89.97
2023-03-08T04:28:52.569Z,90.3
2023-03-08T04:35:15.663Z,90.53
2023-03-08T04:41:35.672Z,90.4
2023-03-08T04:47:58.590Z,90.4
2023-03-08T04:54:18.617Z,90.25
2023-03-08T05:00:41.667Z,90.19
2023-03-08T05:07:01.608Z,90.35
2023-03-08T05:13:24.655Z,90.4
2023-03-08T05:19:44.676Z,90.34
2023-03-08T05:26:07.618Z,90.54
2023-03-08T05:32:27.691Z,90.77
2023-03-08T05:38:50.694Z,90.89
2023-03-08T05:45:10.668Z,91.01
2023-03-08T05:51:33.577Z,91.07
2023-03-08T05:57:53.623Z,91.13
2023-03-08T06:04:16.605Z,91.15
2023-03-08T06:10:36.626Z,91.18
2023-03-08T06:16:59.692Z,91.25
2023-03-08T06:23:19.639Z,91.25
2023-03-08T06:29:42.634Z,91.27
2023-03-08T06:36:02.736Z,91.47
2023-03-08T06:42:38.468Z,91.45
2023-03-08T06:48:45.600Z,91.32
2023-03-08T06:55:08.607Z,91.44
2023-03-08T07:01:28.654Z,91.44
2023-03-08T07:07:51.564Z,91.4
2023-03-08T07:14:11.613Z,91.34
2023-03-08T07:20:34.573Z,91.4
2023-03-08T07:26:54.576Z,91.37
2023-03-08T07:33:17.703Z,91.37
2023-03-08T07:39:37.561Z,91.33
2023-03-08T07:46:00.665Z,91.31
2023-03-08T07:52:20.600Z,91.33
2023-03-08T07:58:43.587Z,91.19
2023-03-08T08:05:03.619Z,91.14
2023-03-08T08:11:26.586Z,91.1
2023-03-08T08:17:46.639Z,90.88
2023-03-08T08:24:09.656Z,90.71
2023-03-08T08:30:29.646Z,90.57
2023-03-08T08:36:52.661Z,90.76
2023-03-08T08:43:12.600Z,90.87
2023-03-08T08:49:35.686Z,90.82
2023-03-08T08:55:55.656Z,90.87
2023-03-08T09:02:18.728Z,90.92
2023-03-08T09:08:38.655Z,90.89
2023-03-08T09:24:49.517Z,90.71
2023-03-08T09:31:09.629Z,90.7
2023-03-08T09:37:32.558Z,90.68
2023-03-08T09:43:52.612Z,90.63
2023-03-08T09:50:15.613Z,90.66
2023-03-08T09:56:35.595Z,90.78
2023-03-08T10:02:58.694Z,90.73
2023-03-08T10:09:18.613Z,90.88
2023-03-08T10:15:41.590Z,90.88
2023-03-08T10:22:01.679Z,90.68
2023-03-08T10:28:24.636Z,90.33
2023-03-08T10:34:44.749Z,90.24
2023-03-08T10:41:10.252Z,90.32
2023-03-08T10:47:29.559Z,90.3
2023-03-08T10:53:52.637Z,90.26
2023-03-08T11:00:12.652Z,90.05
2023-03-08T11:06:35.613Z,89.89
2023-03-08T11:12:55.658Z,90.11
2023-03-08T11:19:18.804Z,90.03
2023-03-08T11:25:38.669Z,90.2
2023-03-08T11:32:01.600Z,89.98
2023-03-08T11:38:21.710Z,89.38
2023-03-08T11:44:44.597Z,88.94
2023-03-08T11:51:04.686Z,88.97
2023-03-08T11:57:27.623Z,88.5
2023-03-08T12:03:47.676Z,88.43
2023-03-08T12:10:11.049Z,87.18
2023-03-08T12:16:30.780Z,87.63
2023-03-08T12:22:53.718Z,87.47
2023-03-08T12:29:14.619Z,87.86
2023-03-08T12:35:37.883Z,87.38
2023-03-08T12:41:57.571Z,86.74
2023-03-08T12:48:20.684Z,86.97
2023-03-08T12:54:40.635Z,86.46
2023-03-08T13:01:03.685Z,86.62
2023-03-08T13:07:23.615Z,86.85
2023-03-08T13:13:46.665Z,87.1
2023-03-08T13:20:06.745Z,86.78
2023-03-08T13:26:35.147Z,87.32
2023-03-08T13:32:49.697Z,87.28
2023-03-08T13:39:12.607Z,87.13
2023-03-08T13:45:32.666Z,86.62
2023-03-08T13:51:55.624Z,87.05
2023-03-08T13:58:15.663Z,87.11
2023-03-08T14:04:38.650Z,87.42
2023-03-08T14:10:58.703Z,87
2023-03-08T14:17:21.641Z,87.49
2023-03-08T14:34:48.710Z,88.43
2023-03-08T14:41:11.606Z,88.96
2023-03-08T14:47:31.575Z,89.57
2023-03-08T14:53:54.629Z,89.89
2023-03-08T15:00:14.621Z,90.23
2023-03-08T15:06:37.661Z,90.57
2023-03-08T15:12:57.596Z,90.57
2023-03-08T15:19:20.666Z,90.83
2023-03-08T15:25:40.586Z,90.97
2023-03-08T15:32:03.590Z,91.35
2023-03-08T15:38:23.614Z,91.5
2023-03-08T15:44:46.657Z,91.5
2023-03-08T15:51:06.587Z,91.57
2023-03-08T15:57:29.642Z,91.65
2023-03-08T16:03:49.594Z,91.73
2023-03-08T16:10:12.639Z,91.75
2023-03-08T16:16:44.634Z,91.71
2023-03-08T16:22:55.654Z,91.71
2023-03-08T16:29:15.599Z,91.79
2023-03-08T16:35:38.738Z,91.84
2023-03-08T16:41:58.582Z,91.76
2023-03-08T16:48:21.613Z,91.68
2023-03-08T16:54:41.613Z,91.74
2023-03-08T17:01:04.630Z,91.6
2023-03-08T17:07:24.613Z,91.43
2023-03-08T17:13:47.620Z,91.33
2023-03-08T17:20:07.583Z,91.31
2023-03-08T17:26:30.662Z,91.23
2023-03-08T17:32:50.574Z,91.33
2023-03-08T17:39:13.674Z,91.43
2023-03-08T17:45:33.613Z,91.49
2023-03-08T17:51:56.568Z,91.25
2023-03-08T17:58:16.660Z,91.25
2023-03-08T18:04:39.742Z,91.4
2023-03-08T18:10:59.629Z,91.57
2023-03-08T18:17:22.642Z,91.57
2023-03-08T18:23:42.722Z,91.71
2023-03-08T18:30:05.617Z,91.71
2023-03-08T18:36:25.635Z,91.68
2023-03-08T18:42:48.654Z,91.71
2023-03-08T18:49:08.844Z,91.57
2023-03-08T18:55:31.597Z,91.65
2023-03-08T19:01:51.642Z,91.57
2023-03-08T19:08:14.557Z,91.68
2023-03-08T19:14:34.623Z,91.82
2023-03-08T19:38:34.527Z,91.96
2023-03-08T19:44:57.581Z,91.71
2023-03-08T19:51:17.622Z,91.9
2023-03-08T19:57:40.656Z,91.99
2023-03-08T20:04:00.592Z,92.01
2023-03-08T20:10:23.697Z,92.1
2023-03-08T20:16:43.662Z,92.18
2023-03-08T20:23:06.601Z,92.07
2023-03-08T20:29:26.600Z,91.96
2023-03-08T20:35:49.656Z,92.01
2023-03-08T20:42:09.638Z,92.04
2023-03-08T20:48:32.615Z,92.09
2023-03-08T20:54:52.616Z,92.15
2023-03-08T21:01:15.679Z,92.21
2023-03-08T21:07:35.774Z,92.18
2023-03-08T21:13:58.614Z,92.13
2023-03-08T21:20:18.569Z,92.21
2023-03-08T21:26:41.605Z,92.22
2023-03-08T21:33:01.725Z,92.31
2023-03-08T21:39:24.727Z,92.27
2023-03-08T21:45:44.581Z,91.88
2023-03-08T21:52:07.612Z,91.98
2023-03-08T21:58:27.683Z,92.09
2023-03-08T22:04:50.893Z,92.24
2023-03-08T22:11:10.639Z,92.38
2023-03-08T22:17:33.598Z,92.52
2023-03-08T22:23:53.559Z,92.69
2023-03-08T22:30:16.700Z,92.79
2023-03-08T22:36:36.632Z,92.81
2023-03-08T22:42:59.573Z,92.88
2023-03-08T22:49:19.670Z,92.95
2023-03-08T22:55:42.584Z,93.07
2023-03-08T23:19:57.601Z,93.39
2023-03-08T23:26:17.552Z,93.36
2023-03-08T23:32:40.653Z,93.39
2023-03-08T23:39:00.613Z,93.41
2023-03-08T23:45:23.664Z,93.45
2023-03-08T23:51:43.667Z,93.5
2023-03-08T23:58:06.635Z,93.49
